sensor_id;sensor_type;location;lat;lon;timestamp;P1;durP1;ratioP1;P2;durP2;ratioP2
12072;SDS011;6098;49.004;8.372;2024-01-16T00:08:58;7.97;;;3.23;;
12072;SDS011;6098;49.004;8.372;2024-01-16T00:23:49;9.06;;;4.47;;
12072;SDS011;6098;49.004;8.372;2024-01-16T00:38:41;6.20;;;2.99;;
12072;SDS011;6098;49.004;8.372;2024-01-16T00:53:30;6.84;;;3.29;;
12072;SDS011;6098;49.004;8.372;2024-01-16T01:08:21;6.49;;;3.43;;
12072;SDS011;6098;49.004;8.372;2024-01-16T01:23:12;6.77;;;3.82;;
12072;SDS011;6098;49.004;8.372;2024-01-16T01:38:02;6.44;;;3.28;;
12072;SDS011;6098;49.004;8.372;2024-01-16T01:52:53;4.83;;;3.13;;
12072;SDS011;6098;49.004;8.372;2024-01-16T02:07:43;5.82;;;3.52;;
12072;SDS011;6098;49.004;8.372;2024-01-16T02:22:34;5.28;;;3.43;;
12072;SDS011;6098;49.004;8.372;2024-01-16T02:37:23;4.32;;;3.27;;
12072;SDS011;6098;49.004;8.372;2024-01-16T02:52:14;7.76;;;3.92;;
12072;SDS011;6098;49.004;8.372;2024-01-16T03:07:03;5.59;;;3.94;;
12072;SDS011;6098;49.004;8.372;2024-01-16T03:21:53;6.57;;;3.53;;
12072;SDS011;6098;49.004;8.372;2024-01-16T03:36:45;4.62;;;2.89;;
12072;SDS011;6098;49.004;8.372;2024-01-16T03:51:35;9.88;;;3.83;;
12072;SDS011;6098;49.004;8.372;2024-01-16T04:06:25;3.78;;;2.80;;
12072;SDS011;6098;49.004;8.372;2024-01-16T04:21:17;5.50;;;3.38;;
12072;SDS011;6098;49.004;8.372;2024-01-16T04:36:07;5.42;;;2.64;;
12072;SDS011;6098;49.004;8.372;2024-01-16T04:50:57;5.76;;;3.00;;
12072;SDS011;6098;49.004;8.372;2024-01-16T05:05:49;5.77;;;3.23;;
12072;SDS011;6098;49.004;8.372;2024-01-16T05:20:38;5.52;;;2.63;;
12072;SDS011;6098;49.004;8.372;2024-01-16T05:35:28;6.79;;;3.36;;
12072;SDS011;6098;49.004;8.372;2024-01-16T05:50:19;5.92;;;3.26;;
12072;SDS011;6098;49.004;8.372;2024-01-16T06:05:09;8.28;;;3.42;;
12072;SDS011;6098;49.004;8.372;2024-01-16T06:20:02;6.67;;;3.52;;
12072;SDS011;6098;49.004;8.372;2024-01-16T06:34:52;6.88;;;3.41;;
12072;SDS011;6098;49.004;8.372;2024-01-16T06:49:42;6.94;;;3.59;;
12072;SDS011;6098;49.004;8.372;2024-01-16T07:04:33;7.31;;;3.68;;
12072;SDS011;6098;49.004;8.372;2024-01-16T07:19:24;6.27;;;3.91;;
12072;SDS011;6098;49.004;8.372;2024-01-16T07:34:14;6.29;;;3.76;;
12072;SDS011;6098;49.004;8.372;2024-01-16T07:49:04;7.11;;;4.53;;
12072;SDS011;6098;49.004;8.372;2024-01-16T08:03:55;4.73;;;3.62;;
12072;SDS011;6098;49.004;8.372;2024-01-16T08:18:43;8.17;;;4.39;;
12072;SDS011;6098;49.004;8.372;2024-01-16T08:33:35;6.20;;;4.12;;
12072;SDS011;6098;49.004;8.372;2024-01-16T08:48:26;9.07;;;4.64;;
12072;SDS011;6098;49.004;8.372;2024-01-16T09:03:17;8.79;;;3.84;;
12072;SDS011;6098;49.004;8.372;2024-01-16T09:18:08;7.52;;;4.20;;
12072;SDS011;6098;49.004;8.372;2024-01-16T09:33:00;6.93;;;4.27;;
12072;SDS011;6098;49.004;8.372;2024-01-16T09:47:51;7.51;;;3.43;;
12072;SDS011;6098;49.004;8.372;2024-01-16T10:02:42;5.83;;;3.73;;
12072;SDS011;6098;49.004;8.372;2024-01-16T10:17:40;11.33;;;4.01;;
12072;SDS011;6098;49.004;8.372;2024-01-16T10:32:35;7.30;;;4.23;;
12072;SDS011;6098;49.004;8.372;2024-01-16T10:47:26;10.30;;;3.92;;
12072;SDS011;6098;49.004;8.372;2024-01-16T11:02:17;10.03;;;3.92;;
12072;SDS011;6098;49.004;8.372;2024-01-16T11:17:08;4.98;;;3.61;;
12072;SDS011;6098;49.004;8.372;2024-01-16T11:31:59;8.57;;;7.06;;
12072;SDS011;6098;49.004;8.372;2024-01-16T11:46:59;7.04;;;3.60;;
12072;SDS011;6098;49.004;8.372;2024-01-16T12:01:56;5.12;;;3.14;;
12072;SDS011;6098;49.004;8.372;2024-01-16T12:16:46;4.63;;;3.31;;
12072;SDS011;6098;49.004;8.372;2024-01-16T12:31:37;6.33;;;3.54;;
12072;SDS011;6098;49.004;8.372;2024-01-16T12:46:29;3.98;;;2.59;;
12072;SDS011;6098;49.004;8.372;2024-01-16T13:01:29;3.96;;;2.28;;
12072;SDS011;6098;49.004;8.372;2024-01-16T13:16:22;3.47;;;2.40;;
12072;SDS011;6098;49.004;8.372;2024-01-16T13:31:15;2.19;;;1.76;;
12072;SDS011;6098;49.004;8.372;2024-01-16T13:46:04;3.36;;;1.91;;
12072;SDS011;6098;49.004;8.372;2024-01-16T14:00:55;3.24;;;1.80;;
12072;SDS011;6098;49.004;8.372;2024-01-16T14:15:45;1.81;;;1.02;;
12072;SDS011;6098;49.004;8.372;2024-01-16T14:30:36;2.60;;;1.20;;
12072;SDS011;6098;49.004;8.372;2024-01-16T14:45:26;3.26;;;1.83;;
12072;SDS011;6098;49.004;8.372;2024-01-16T15:15:28;2.16;;;1.89;;
12072;SDS011;6098;49.004;8.372;2024-01-16T15:30:21;6.59;;;2.01;;
12072;SDS011;6098;49.004;8.372;2024-01-16T15:45:17;3.34;;;1.91;;
12072;SDS011;6098;49.004;8.372;2024-01-16T16:00:07;2.90;;;1.84;;
12072;SDS011;6098;49.004;8.372;2024-01-16T16:14:59;3.98;;;1.80;;
12072;SDS011;6098;49.004;8.372;2024-01-16T16:29:51;4.18;;;2.43;;
12072;SDS011;6098;49.004;8.372;2024-01-16T16:44:40;3.31;;;2.21;;
12072;SDS011;6098;49.004;8.372;2024-01-16T16:59:30;8.60;;;4.60;;
12072;SDS011;6098;49.004;8.372;2024-01-16T17:14:20;5.48;;;3.98;;
12072;SDS011;6098;49.004;8.372;2024-01-16T17:29:10;6.97;;;3.77;;
12072;SDS011;6098;49.004;8.372;2024-01-16T17:44:00;7.43;;;5.44;;
12072;SDS011;6098;49.004;8.372;2024-01-16T17:58:50;6.47;;;3.22;;
12072;SDS011;6098;49.004;8.372;2024-01-16T18:13:40;6.64;;;3.91;;
12072;SDS011;6098;49.004;8.372;2024-01-16T18:28:29;13.96;;;5.59;;
12072;SDS011;6098;49.004;8.372;2024-01-16T18:43:35;10.71;;;6.57;;
12072;SDS011;6098;49.004;8.372;2024-01-16T18:58:25;12.20;;;5.54;;
12072;SDS011;6098;49.004;8.372;2024-01-16T19:13:16;10.42;;;4.32;;
12072;SDS011;6098;49.004;8.372;2024-01-16T19:28:06;13.26;;;5.37;;
12072;SDS011;6098;49.004;8.372;2024-01-16T19:42:56;8.90;;;4.77;;
12072;SDS011;6098;49.004;8.372;2024-01-16T19:57:57;7.21;;;4.63;;
12072;SDS011;6098;49.004;8.372;2024-01-16T20:12:48;10.83;;;4.41;;
12072;SDS011;6098;49.004;8.372;2024-01-16T20:27:37;6.84;;;4.03;;
12072;SDS011;6098;49.004;8.372;2024-01-16T20:42:28;6.11;;;3.92;;
12072;SDS011;6098;49.004;8.372;2024-01-16T20:57:19;7.84;;;4.58;;
12072;SDS011;6098;49.004;8.372;2024-01-16T21:12:09;7.13;;;4.42;;
12072;SDS011;6098;49.004;8.372;2024-01-16T21:26:59;10.61;;;6.79;;
12072;SDS011;6098;49.004;8.372;2024-01-16T21:41:49;14.38;;;6.89;;
12072;SDS011;6098;49.004;8.372;2024-01-16T21:56:40;12.74;;;7.39;;
12072;SDS011;6098;49.004;8.372;2024-01-16T22:11:30;27.57;;;9.26;;
12072;SDS011;6098;49.004;8.372;2024-01-16T22:26:22;15.01;;;7.21;;
12072;SDS011;6098;49.004;8.372;2024-01-16T22:41:13;10.42;;;6.92;;
12072;SDS011;6098;49.004;8.372;2024-01-16T22:56:06;11.50;;;6.09;;
12072;SDS011;6098;49.004;8.372;2024-01-16T23:11:09;10.74;;;7.36;;
12072;SDS011;6098;49.004;8.372;2024-01-16T23:26:15;10.58;;;6.31;;
12072;SDS011;6098;49.004;8.372;2024-01-16T23:41:07;10.17;;;7.14;;
12072;SDS011;6098;49.004;8.372;2024-01-16T23:56:00;13.78;;;6.68;;
